マイアミ の空港の天気 - METARとTAF

マイアミ国際空港 ( KMIA / MIA ) - アメリカ フロリダ州マイアミ
飛行場実況気象(Metar)
観測時間01/21 12:53 EST (01/21 17:53 UTC)
風向・風速東北東 5m/s
視程10km以上
天気現象
全天の4割程度の雲 雲底高度 910m
全天の8割程度の雲 雲底高度 1370m
全天の8割程度の雲 雲底高度 4570m
全天の8割程度の雲 雲底高度 7620m
気温26.1℃
湿度60%
気圧1021hPa
METARKMIA 211753Z 07009KT 10SM SCT030 BKN045 BKN150 BKN250 26/18 A3015 RMK AO2 SLP210 T02610178 10267 20206 58013
過去の天気等 Google飛行場航空写真 Wunderground天気予報

過去48時間のMETAR

飛行場予報(TAF)
発表時間: 1/21 12:28 EST (1/21 17:28 UTC)
予報対象時間: 21日13時 EST ~ 22日19時 EST
風向・風速東 6m/s
視程10km以上
全天の4割程度の雲 雲底高度 760m
全天の8割程度の雲 雲底高度 1,220m
21日19時 EST から
風向・風速東南東 5m/s
視程10km以上
全天の4割程度の雲 雲底高度 910m
全天の4割程度の雲 雲底高度 7,620m
KMIA 211728Z 2118/2224 10012KT P6SM SCT025 BKN040
FM220000 11010KT P6SM SCT030 SCT250